createdAt,value
2018-09-11T00:00:49.608Z,15.02
2018-09-11T00:01:49.565Z,15.06
2018-09-11T00:02:49.553Z,15.02
2018-09-11T00:03:49.543Z,14.92
2018-09-11T00:04:49.530Z,14.91
2018-09-11T00:05:49.540Z,14.94
2018-09-11T00:06:49.507Z,14.89
2018-09-11T00:07:49.518Z,14.96
2018-09-11T00:08:49.485Z,14.94
2018-09-11T00:09:49.473Z,14.92
2018-09-11T00:10:49.467Z,14.91
2018-09-11T00:11:49.481Z,14.98
2018-09-11T00:12:49.440Z,14.86
2018-09-11T00:13:49.429Z,14.91
2018-09-11T00:14:49.418Z,14.98
2018-09-11T00:15:49.407Z,15.01
2018-09-11T00:16:49.417Z,15.01
2018-09-11T00:17:49.422Z,15.01
2018-09-11T00:18:49.373Z,15.03
2018-09-11T00:19:49.362Z,15.07
2018-09-11T00:20:49.352Z,15.09
2018-09-11T00:21:49.341Z,15.02
2018-09-11T00:22:49.350Z,15.10
2018-09-11T00:23:49.317Z,15.07
2018-09-11T00:24:49.308Z,15.03
2018-09-11T00:25:49.317Z,15.09
2018-09-11T00:26:49.288Z,15.07
2018-09-11T00:27:49.273Z,15.03
2018-09-11T00:28:49.263Z,14.95
2018-09-11T00:29:49.253Z,15.02
2018-09-11T00:30:49.262Z,15.02
2018-09-11T00:31:49.246Z,15.11
2018-09-11T00:32:49.258Z,15.09
2018-09-11T00:33:49.208Z,15.02
2018-09-11T00:34:49.197Z,15.09
2018-09-11T00:35:49.185Z,14.98
2018-09-11T00:36:49.174Z,15.03
2018-09-11T00:37:49.184Z,15.01
2018-09-11T00:38:49.152Z,15.09
2018-09-11T00:39:49.141Z,15.07
2018-09-11T00:40:49.155Z,15.07
2018-09-11T00:41:49.122Z,15.09
2018-09-11T00:42:49.132Z,15.06
2018-09-11T00:43:49.097Z,15.13
2018-09-11T00:44:49.125Z,15.06
2018-09-11T00:45:49.077Z,15.09
2018-09-11T00:46:49.063Z,15.03
2018-09-11T00:47:49.052Z,15.02
2018-09-11T00:48:49.042Z,15.10
2018-09-11T00:49:49.051Z,15.10
2018-09-11T00:50:49.019Z,15.09
2018-09-11T00:51:49.076Z,15.09
2018-09-11T00:52:48.998Z,14.99
2018-09-11T00:53:49.038Z,15.01
2018-09-11T00:54:48.979Z,15.07
2018-09-11T00:55:48.964Z,15.01
2018-09-11T00:56:48.952Z,15.06
2018-09-11T00:57:48.944Z,15.02
2018-09-11T00:58:48.952Z,14.94
2018-09-11T00:59:48.920Z,15.02
2018-09-11T01:00:48.931Z,15.01
2018-09-11T01:01:48.897Z,14.96
2018-09-11T01:02:48.912Z,14.89
2018-09-11T01:03:48.875Z,14.94
2018-09-11T01:04:48.864Z,14.83
2018-09-11T01:05:48.874Z,14.89
2018-09-11T01:06:48.842Z,14.75
2018-09-11T01:07:48.830Z,14.80
2018-09-11T01:08:48.820Z,14.73
2018-09-11T01:09:48.842Z,14.86
2018-09-11T01:10:48.797Z,14.80
2018-09-11T01:11:48.787Z,14.84
2018-09-11T01:12:48.776Z,14.83
2018-09-11T01:13:48.764Z,14.75
2018-09-11T01:14:48.785Z,14.83
2018-09-11T01:15:48.742Z,14.77
2018-09-11T01:16:48.734Z,14.78
2018-09-11T01:17:48.725Z,14.70
2018-09-11T01:18:48.709Z,14.72
2018-09-11T01:19:48.719Z,14.81
2018-09-11T01:20:48.686Z,14.84
2018-09-11T01:21:48.675Z,14.83
2018-09-11T01:22:48.666Z,14.78
2018-09-11T01:23:48.655Z,14.83
2018-09-11T01:24:48.665Z,14.86
2018-09-11T01:25:48.630Z,14.83
2018-09-11T01:26:55.133Z,14.83
2018-09-11T01:27:48.609Z,14.77
2018-09-11T01:28:48.611Z,14.75
2018-09-11T01:29:48.591Z,14.86
2018-09-11T01:30:48.581Z,14.84
2018-09-11T01:31:48.564Z,14.78
2018-09-11T01:32:48.553Z,14.95
2018-09-11T01:33:48.576Z,14.94
2018-09-11T01:34:48.531Z,14.94
2018-09-11T01:35:48.521Z,14.89
2018-09-11T01:36:48.514Z,14.89
2018-09-11T01:37:48.503Z,14.84
2018-09-11T01:38:48.515Z,14.78
2018-09-11T01:39:48.476Z,14.81
2018-09-11T01:40:48.465Z,14.80
2018-09-11T01:41:48.456Z,14.78
2018-09-11T01:42:48.444Z,14.72
2018-09-11T01:43:48.453Z,14.70
2018-09-11T01:44:48.423Z,14.78
2018-09-11T01:45:48.416Z,14.73
2018-09-11T01:46:48.399Z,14.68
2018-09-11T01:47:48.387Z,14.62
2018-09-11T01:48:48.398Z,14.68
2018-09-11T01:49:48.372Z,14.65
2018-09-11T01:50:48.357Z,14.62
2018-09-11T01:51:48.351Z,14.68
2018-09-11T01:52:48.362Z,14.62
2018-09-11T01:53:48.324Z,14.69
2018-09-11T01:54:48.367Z,14.70
2018-09-11T01:55:48.355Z,14.72
2018-09-11T01:56:48.288Z,14.83
2018-09-11T01:57:48.301Z,14.83
2018-09-11T01:58:48.312Z,14.78
2018-09-11T01:59:48.359Z,14.83
2018-09-11T02:00:48.248Z,14.86
2018-09-11T02:01:48.233Z,14.81
2018-09-11T02:02:48.247Z,14.96
2018-09-11T02:03:48.212Z,14.91
2018-09-11T02:04:48.207Z,15.03
2018-09-11T02:05:48.216Z,15.09
2018-09-11T02:06:48.182Z,15.16
2018-09-11T02:07:48.167Z,15.09
2018-09-11T02:08:48.159Z,15.19
2018-09-11T02:09:48.146Z,15.28
2018-09-11T02:10:48.159Z,15.34
2018-09-11T02:11:48.121Z,15.38
2018-09-11T02:12:48.111Z,15.38
2018-09-11T02:13:48.099Z,15.39
2018-09-11T02:14:48.094Z,15.38
2018-09-11T02:15:48.100Z,15.53
2018-09-11T02:16:48.067Z,15.53
2018-09-11T02:17:48.056Z,15.57
2018-09-11T02:18:48.048Z,15.65
2018-09-11T02:19:48.038Z,15.67
2018-09-11T02:20:48.060Z,15.59
2018-09-11T02:21:48.011Z,15.71
2018-09-11T02:22:47.999Z,15.69
2018-09-11T02:23:47.989Z,15.71
2018-09-11T02:24:47.982Z,15.75
2018-09-11T02:25:47.992Z,15.75
2018-09-11T02:26:47.976Z,15.76
2018-09-11T02:27:47.945Z,15.86
2018-09-11T02:28:47.933Z,15.89
2018-09-11T02:29:47.928Z,15.92
2018-09-11T02:30:47.951Z,15.89
2018-09-11T02:31:47.900Z,15.96
2018-09-11T02:32:47.913Z,15.83
2018-09-11T02:33:47.881Z,15.93
2018-09-11T02:34:47.867Z,15.82
2018-09-11T02:35:47.894Z,15.92
2018-09-11T02:36:47.867Z,15.89
2018-09-11T02:37:47.836Z,15.94
2018-09-11T02:38:47.824Z,15.96
2018-09-11T02:39:47.843Z,15.97
2018-09-11T02:40:47.801Z,16.02
2018-09-11T02:41:47.797Z,15.97
2018-09-11T02:42:47.779Z,16.01
2018-09-11T02:43:47.772Z,16.00
2018-09-11T02:44:47.788Z,16.05
2018-09-11T02:45:47.745Z,16.05
2018-09-11T02:46:47.736Z,16.05
2018-09-11T02:47:47.723Z,16.02
2018-09-11T02:48:47.718Z,16.02
2018-09-11T02:49:47.724Z,16.08
2018-09-11T02:50:47.690Z,15.96
2018-09-11T02:51:47.682Z,16.00
2018-09-11T02:52:47.680Z,16.02
2018-09-11T02:53:47.657Z,15.97
2018-09-11T02:54:47.672Z,16.08
2018-09-11T02:55:47.667Z,16.04
2018-09-11T02:56:47.623Z,16.04
2018-09-11T02:57:47.613Z,16.02
2018-09-11T02:58:47.601Z,16.01
2018-09-11T02:59:47.601Z,16.04
2018-09-11T03:00:47.611Z,16.07
2018-09-11T03:01:47.569Z,16.09
2018-09-11T03:02:47.560Z,16.08
2018-09-11T03:03:47.546Z,16.08
2018-09-11T03:04:47.536Z,16.08
2018-09-11T03:05:47.553Z,16.07
2018-09-11T03:06:47.512Z,16.07
2018-09-11T03:07:47.506Z,15.96
2018-09-11T03:08:47.491Z,16.00
2018-09-11T03:09:47.480Z,16.04
2018-09-11T03:10:47.501Z,16.01
2018-09-11T03:11:47.462Z,16.00
2018-09-11T03:12:47.446Z,16.05
2018-09-11T03:13:47.445Z,16.07
2018-09-11T03:14:47.433Z,16.07
2018-09-11T03:15:47.456Z,16.01
2018-09-11T03:16:47.403Z,16.05
2018-09-11T03:17:47.395Z,16.02
2018-09-11T03:18:47.457Z,16.01
2018-09-11T03:19:47.368Z,16.05
2018-09-11T03:20:47.379Z,16.07
2018-09-11T03:21:47.368Z,16.05
2018-09-11T03:22:47.336Z,16.07
2018-09-11T03:23:47.325Z,16.11
2018-09-11T03:24:47.321Z,16.01
2018-09-11T03:25:47.307Z,16.08
2018-09-11T03:26:47.314Z,16.00
2018-09-11T03:27:47.285Z,16.01
2018-09-11T03:28:47.387Z,16.02
2018-09-11T03:29:47.270Z,16.02
2018-09-11T03:30:47.248Z,16.00
2018-09-11T03:31:47.242Z,16.01
2018-09-11T03:32:47.224Z,16.02
2018-09-11T03:33:47.268Z,16.00
2018-09-11T03:34:47.205Z,15.97
2018-09-11T03:35:47.217Z,16.02
2018-09-11T03:36:47.184Z,15.96
2018-09-11T03:37:47.170Z,16.01
2018-09-11T03:38:47.346Z,15.94
2018-09-11T03:39:47.153Z,15.92
2018-09-11T03:40:47.136Z,15.89
2018-09-11T03:41:47.129Z,16.04
2018-09-11T03:42:47.114Z,15.93
2018-09-11T03:43:47.124Z,15.94
2018-09-11T03:44:47.092Z,15.84
2018-09-11T03:45:47.082Z,15.82
2018-09-11T03:46:47.070Z,15.90
2018-09-11T03:47:47.062Z,15.86
2018-09-11T03:48:47.088Z,15.92
2018-09-11T03:49:47.038Z,15.80
2018-09-11T03:50:47.028Z,15.86
2018-09-11T03:51:47.025Z,15.87
2018-09-11T03:52:47.004Z,15.84
2018-09-11T03:53:47.028Z,15.82
2018-09-11T03:54:47.031Z,15.86
2018-09-11T03:55:46.974Z,15.78
2018-09-11T03:56:47.006Z,15.74
2018-09-11T03:57:46.954Z,15.75
2018-09-11T03:58:47.076Z,15.75
2018-09-11T03:59:46.937Z,15.78
2018-09-11T04:00:46.994Z,15.67
2018-09-11T04:01:46.904Z,15.74
2018-09-11T04:02:47.142Z,15.69
2018-09-11T04:03:46.913Z,15.68
2018-09-11T04:04:46.874Z,15.68
2018-09-11T04:05:46.872Z,15.71
2018-09-11T04:06:46.874Z,15.56
2018-09-11T04:07:46.843Z,15.59
2018-09-11T04:08:46.855Z,15.53
2018-09-11T04:09:46.815Z,15.51
2018-09-11T04:10:46.809Z,15.47
2018-09-11T04:11:46.794Z,15.41
2018-09-11T04:12:46.789Z,15.36
2018-09-11T04:13:46.793Z,15.38
2018-09-11T04:14:46.790Z,15.35
2018-09-11T04:15:46.749Z,15.28
2018-09-11T04:16:46.738Z,15.17
2018-09-11T04:17:46.735Z,15.29
2018-09-11T04:18:46.716Z,15.23
2018-09-11T04:19:46.727Z,15.21
2018-09-11T04:20:46.693Z,15.19
2018-09-11T04:21:46.683Z,15.14
2018-09-11T04:22:46.671Z,15.10
2018-09-11T04:23:46.682Z,15.03
2018-09-11T04:24:46.651Z,15.07
2018-09-11T04:25:46.759Z,15.09
2018-09-11T04:26:46.636Z,14.99
2018-09-11T04:27:46.654Z,14.95
2018-09-11T04:28:46.620Z,14.96
2018-09-11T04:29:46.792Z,14.94
2018-09-11T04:30:46.726Z,14.91
2018-09-11T04:31:46.577Z,14.77
2018-09-11T04:32:46.562Z,14.83
2018-09-11T04:33:46.550Z,14.78
2018-09-11T04:34:46.569Z,14.75
2018-09-11T04:35:46.538Z,14.72
2018-09-11T04:36:46.517Z,14.72
2018-09-11T04:37:46.517Z,14.72
2018-09-11T04:38:46.495Z,14.81
2018-09-11T04:39:46.509Z,14.78
2018-09-11T04:40:46.477Z,14.77
2018-09-11T04:41:46.490Z,14.78
2018-09-11T04:42:46.454Z,14.73
2018-09-11T04:43:46.464Z,14.78
2018-09-11T04:44:46.429Z,14.78
2018-09-11T04:45:46.439Z,14.64
2018-09-11T04:46:46.410Z,14.69
2018-09-11T04:47:46.417Z,14.75
2018-09-11T04:48:46.385Z,14.80
2018-09-11T04:49:46.395Z,14.80
2018-09-11T04:50:46.375Z,14.80
2018-09-11T04:51:46.374Z,14.77
2018-09-11T04:52:46.364Z,14.80
2018-09-11T04:53:46.362Z,14.83
2018-09-11T04:54:46.317Z,14.86
2018-09-11T04:55:46.319Z,14.92
2018-09-11T04:56:46.300Z,14.92
2018-09-11T04:57:46.284Z,14.86
2018-09-11T04:58:46.303Z,14.91
2018-09-11T04:59:46.264Z,14.94
2018-09-11T05:00:46.251Z,14.95
2018-09-11T05:01:46.244Z,14.94
2018-09-11T05:02:46.235Z,14.94
2018-09-11T05:03:46.250Z,14.91
2018-09-11T05:04:46.211Z,14.89
2018-09-11T05:05:46.197Z,14.89
2018-09-11T05:06:46.191Z,14.92
2018-09-11T05:07:46.173Z,15.03
2018-09-11T05:08:46.188Z,15.02
2018-09-11T05:09:46.151Z,15.02
2018-09-11T05:10:46.140Z,15.09
2018-09-11T05:11:46.129Z,15.02
2018-09-11T05:12:46.122Z,15.11
2018-09-11T05:13:46.127Z,15.16
2018-09-11T05:14:46.097Z,15.06
2018-09-11T05:15:46.085Z,15.10
2018-09-11T05:16:46.102Z,15.17
2018-09-11T05:17:46.063Z,15.11
2018-09-11T05:18:46.084Z,15.17
2018-09-11T05:19:46.040Z,15.21
2018-09-11T05:20:46.031Z,15.13
2018-09-11T05:21:46.019Z,15.17
2018-09-11T05:22:46.019Z,15.10
2018-09-11T05:23:46.036Z,15.11
2018-09-11T05:24:46.008Z,15.16
2018-09-11T05:25:45.982Z,15.17
2018-09-11T05:26:45.973Z,15.21
2018-09-11T05:27:45.952Z,15.21
2018-09-11T05:28:45.941Z,15.23
2018-09-11T05:29:45.954Z,15.28
2018-09-11T05:30:45.951Z,15.28
2018-09-11T05:31:45.912Z,15.28
2018-09-11T05:32:45.896Z,15.28
2018-09-11T05:33:45.885Z,15.32
2018-09-11T05:34:45.879Z,15.27
2018-09-11T05:35:45.886Z,15.21
2018-09-11T05:36:45.853Z,15.28
2018-09-11T05:37:45.905Z,15.31
2018-09-11T05:38:45.835Z,15.38
2018-09-11T05:39:45.824Z,15.36
2018-09-11T05:40:45.808Z,15.39
2018-09-11T05:41:45.819Z,15.41
2018-09-11T05:42:45.819Z,15.41
2018-09-11T05:43:45.779Z,15.50
2018-09-11T05:44:45.766Z,15.49
2018-09-11T05:45:45.753Z,15.53
2018-09-11T05:46:45.746Z,15.47
2018-09-11T05:47:45.754Z,15.49
2018-09-11T05:48:45.724Z,15.59
2018-09-11T05:49:45.708Z,15.56
2018-09-11T05:50:45.696Z,15.57
2018-09-11T05:51:45.715Z,15.56
2018-09-11T05:52:45.679Z,15.67
2018-09-11T05:53:45.676Z,15.65
2018-09-11T05:54:45.653Z,15.67
2018-09-11T05:55:45.643Z,15.72
2018-09-11T05:56:45.655Z,15.80
2018-09-11T05:57:45.618Z,15.72
2018-09-11T05:58:45.613Z,15.72
2018-09-11T05:59:45.597Z,15.72
2018-09-11T06:00:45.600Z,15.75
2018-09-11T06:01:45.601Z,15.72
2018-09-11T06:02:45.599Z,15.74
2018-09-11T06:03:45.559Z,15.75
2018-09-11T06:04:45.546Z,15.74
2018-09-11T06:05:45.691Z,15.84
2018-09-11T06:06:45.521Z,15.86
2018-09-11T06:07:45.531Z,15.89
2018-09-11T06:08:45.497Z,15.87
2018-09-11T06:09:45.491Z,15.82
2018-09-11T06:10:45.496Z,15.90
2018-09-11T06:11:45.470Z,15.83
2018-09-11T06:12:45.465Z,15.82
2018-09-11T06:13:45.465Z,15.82
2018-09-11T06:14:45.454Z,15.78
2018-09-11T06:15:45.448Z,15.93
2018-09-11T06:16:45.411Z,15.93
2018-09-11T06:17:45.397Z,15.92
2018-09-11T06:18:45.387Z,16.00
2018-09-11T06:19:45.376Z,16.00
2018-09-11T06:20:45.387Z,16.04
2018-09-11T06:21:45.352Z,16.09
2018-09-11T06:22:45.344Z,16.12
2018-09-11T06:23:45.333Z,16.15
2018-09-11T06:24:45.345Z,16.17
2018-09-11T06:25:45.358Z,16.21
2018-09-11T06:26:45.312Z,16.24
2018-09-11T06:27:45.292Z,16.30
2018-09-11T06:28:45.278Z,16.38
2018-09-11T06:29:45.268Z,16.35
2018-09-11T06:30:45.254Z,16.42
2018-09-11T06:31:45.266Z,16.33
2018-09-11T06:32:45.232Z,16.45
2018-09-11T06:33:45.228Z,16.53
2018-09-11T06:34:45.215Z,16.50
2018-09-11T06:35:45.204Z,16.56
2018-09-11T06:36:45.209Z,16.52
2018-09-11T06:37:45.181Z,16.57
2018-09-11T06:38:45.165Z,16.60
2018-09-11T06:39:45.175Z,16.73
2018-09-11T06:40:45.144Z,16.66
2018-09-11T06:41:45.157Z,16.68
2018-09-11T06:42:45.123Z,16.81
2018-09-11T06:43:45.110Z,16.78
2018-09-11T06:44:45.149Z,16.82
2018-09-11T06:45:45.092Z,16.85
2018-09-11T06:46:45.107Z,16.83
2018-09-11T06:47:45.068Z,16.83
2018-09-11T06:48:45.076Z,16.79
2018-09-11T06:49:45.045Z,16.91
2018-09-11T06:50:45.035Z,17.00
2018-09-11T06:51:45.024Z,16.93
2018-09-11T06:52:45.011Z,16.93
2018-09-11T06:53:45.022Z,16.94
2018-09-11T06:54:45.027Z,17.00
2018-09-11T06:55:44.981Z,17.06
2018-09-11T06:56:44.968Z,17.14
2018-09-11T06:57:44.956Z,17.16
2018-09-11T06:58:45.062Z,17.26
2018-09-11T06:59:44.933Z,17.43
2018-09-11T07:00:45.012Z,17.43
2018-09-11T07:01:44.967Z,17.54
2018-09-11T07:02:44.903Z,17.62
2018-09-11T07:03:44.909Z,17.81
2018-09-11T07:04:44.877Z,17.97
2018-09-11T07:05:44.867Z,17.96
2018-09-11T07:06:44.880Z,18.21
2018-09-11T07:07:44.847Z,18.42
2018-09-11T07:08:44.833Z,18.65
2018-09-11T07:09:44.862Z,18.81
2018-09-11T07:10:44.811Z,18.80
2018-09-11T07:11:44.805Z,19.07
2018-09-11T07:12:44.810Z,19.25
2018-09-11T07:13:44.781Z,19.31
2018-09-11T07:14:44.804Z,19.33
2018-09-11T07:15:44.756Z,19.55
2018-09-11T07:16:44.767Z,19.68
2018-09-11T07:17:44.756Z,19.86
2018-09-11T07:18:44.723Z,19.95
2018-09-11T07:19:44.794Z,19.96
2018-09-11T07:20:44.721Z,20.11
2018-09-11T07:21:44.692Z,20.24
2018-09-11T07:22:44.679Z,20.39
2018-09-11T07:23:44.687Z,20.39
2018-09-11T07:24:44.664Z,20.36
2018-09-11T07:25:44.674Z,20.36
2018-09-11T07:26:44.639Z,20.57
2018-09-11T07:27:44.624Z,20.54
2018-09-11T07:28:44.612Z,20.35
2018-09-11T07:29:44.600Z,20.05
2018-09-11T07:30:44.614Z,20.16
2018-09-11T07:31:44.580Z,20.21
2018-09-11T07:32:44.570Z,20.28
2018-09-11T07:33:44.587Z,20.28
2018-09-11T07:34:44.551Z,20.43
2018-09-11T07:35:44.540Z,20.66
2018-09-11T07:36:44.529Z,20.72
2018-09-11T07:37:44.529Z,20.72
2018-09-11T07:38:44.529Z,20.87
2018-09-11T07:39:44.495Z,20.94
2018-09-11T07:40:44.481Z,20.94
2018-09-11T07:41:44.472Z,20.98
2018-09-11T07:42:44.462Z,21.09
2018-09-11T07:43:44.483Z,20.99
2018-09-11T07:44:44.436Z,20.97
2018-09-11T07:45:44.424Z,20.91
2018-09-11T07:46:44.417Z,20.69
2018-09-11T07:47:44.402Z,20.57
2018-09-11T07:48:44.413Z,20.42
2018-09-11T07:49:44.389Z,20.43
2018-09-11T07:50:44.368Z,20.51
2018-09-11T07:51:44.357Z,20.38
2018-09-11T07:52:44.503Z,20.29
2018-09-11T07:53:44.361Z,20.24
2018-09-11T07:54:44.347Z,20.28
2018-09-11T07:55:44.334Z,20.35
2018-09-11T07:56:44.306Z,20.36
2018-09-11T07:57:44.405Z,20.31
2018-09-11T07:58:44.279Z,20.42
2018-09-11T07:59:44.299Z,20.39
2018-09-11T08:00:44.260Z,20.52
2018-09-11T08:01:44.249Z,20.64
2018-09-11T08:02:44.236Z,20.62
2018-09-11T08:03:44.247Z,20.41
2018-09-11T08:04:44.218Z,20.48
2018-09-11T08:05:44.232Z,20.33
2018-09-11T08:06:44.191Z,20.31
2018-09-11T08:07:44.186Z,20.54
2018-09-11T08:08:44.191Z,20.73
2018-09-11T08:09:44.164Z,20.88
2018-09-11T08:10:44.146Z,20.94
2018-09-11T08:11:44.134Z,20.94
2018-09-11T08:12:44.147Z,21.17
2018-09-11T08:13:44.119Z,21.13
2018-09-11T08:14:44.102Z,21.16
2018-09-11T08:15:44.101Z,21.14
2018-09-11T08:16:44.103Z,21.10
2018-09-11T08:17:44.069Z,21.10
2018-09-11T08:18:44.064Z,21.21
2018-09-11T08:19:44.101Z,21.14
2018-09-11T08:20:44.036Z,21.01
2018-09-11T08:21:44.076Z,21.04
2018-09-11T08:22:44.038Z,21.07
2018-09-11T08:23:44.006Z,21.17
2018-09-11T08:24:43.998Z,21.25
2018-09-11T08:25:43.983Z,21.28
2018-09-11T08:26:43.973Z,21.46
2018-09-11T08:27:43.987Z,21.47
2018-09-11T08:28:43.951Z,21.58
2018-09-11T08:29:43.974Z,21.71
2018-09-11T08:30:43.935Z,21.83
2018-09-11T08:31:43.925Z,21.80
2018-09-11T08:32:43.935Z,21.75
2018-09-11T08:33:43.919Z,21.69
2018-09-11T08:34:43.888Z,21.54
2018-09-11T08:35:43.904Z,21.61
2018-09-11T08:36:43.873Z,21.65
2018-09-11T08:37:43.856Z,21.46
2018-09-11T08:38:43.845Z,21.56
2018-09-11T08:39:43.868Z,21.82
2018-09-11T08:40:43.826Z,22.00
2018-09-11T08:41:43.816Z,22.06
2018-09-11T08:42:43.800Z,21.96
2018-09-11T08:43:43.790Z,21.94
2018-09-11T08:44:43.803Z,22.02
2018-09-11T08:45:43.769Z,21.92
2018-09-11T08:46:43.802Z,22.12
2018-09-11T08:47:43.765Z,21.99
2018-09-11T08:48:43.735Z,21.99
2018-09-11T08:49:43.728Z,22.15
2018-09-11T08:50:43.713Z,22.30
2018-09-11T08:51:43.699Z,22.43
2018-09-11T08:52:43.721Z,22.55
2018-09-11T08:53:43.677Z,22.57
2018-09-11T08:54:43.666Z,22.76
2018-09-11T08:55:43.676Z,22.80
2018-09-11T08:56:43.644Z,22.83
2018-09-11T08:57:43.635Z,22.90
2018-09-11T08:58:43.697Z,22.85
2018-09-11T08:59:43.618Z,22.85
2018-09-11T09:00:43.604Z,22.80
2018-09-11T09:01:43.593Z,22.68
2018-09-11T09:02:43.609Z,22.64
2018-09-11T09:03:43.594Z,22.70
2018-09-11T09:04:43.558Z,22.83
2018-09-11T09:05:43.549Z,22.82
2018-09-11T09:06:43.542Z,22.90
2018-09-11T09:07:43.526Z,22.86
2018-09-11T09:08:43.541Z,22.80
2018-09-11T09:09:43.507Z,22.85
2018-09-11T09:10:43.498Z,23.04
2018-09-11T09:11:43.482Z,23.22
2018-09-11T09:12:43.477Z,23.40
2018-09-11T09:13:43.487Z,23.32
2018-09-11T09:14:43.455Z,23.20
2018-09-11T09:15:43.545Z,23.20
2018-09-11T09:16:43.429Z,23.16
2018-09-11T09:17:43.445Z,23.10
2018-09-11T09:18:43.406Z,23.04
2018-09-11T09:19:43.424Z,23.25
2018-09-11T09:20:43.386Z,23.43
2018-09-11T09:21:43.379Z,23.54
2018-09-11T09:22:43.366Z,23.70
2018-09-11T09:23:43.360Z,23.58
2018-09-11T09:24:43.367Z,23.50
2018-09-11T09:25:43.360Z,23.65
2018-09-11T09:26:43.320Z,23.70
2018-09-11T09:27:43.312Z,23.75
2018-09-11T09:28:43.303Z,23.70
2018-09-11T09:29:43.287Z,23.50
2018-09-11T09:30:43.306Z,23.32
2018-09-11T09:31:43.268Z,23.32
2018-09-11T09:32:43.276Z,23.33
2018-09-11T09:33:43.245Z,23.31
2018-09-11T09:34:43.232Z,23.40
2018-09-11T09:35:43.224Z,23.61
2018-09-11T09:36:43.211Z,23.78
2018-09-11T09:37:43.222Z,23.98
2018-09-11T09:38:43.193Z,24.20
2018-09-11T09:39:43.178Z,24.34
2018-09-11T09:40:43.167Z,24.35
2018-09-11T09:41:43.157Z,24.30
2018-09-11T09:42:43.180Z,24.34
2018-09-11T09:43:43.144Z,24.52
2018-09-11T09:44:43.129Z,24.46
2018-09-11T09:45:43.112Z,24.50
2018-09-11T09:46:43.102Z,24.42
2018-09-11T09:47:43.112Z,24.49
2018-09-11T09:48:43.105Z,24.60
2018-09-11T09:49:43.070Z,24.53
2018-09-11T09:50:43.122Z,24.43
2018-09-11T09:51:43.081Z,24.39
2018-09-11T09:52:43.041Z,24.47
2018-09-11T09:53:43.033Z,24.64
2018-09-11T09:54:43.019Z,24.87
2018-09-11T09:55:43.004Z,25.06
2018-09-11T09:56:43.014Z,25.15
2018-09-11T09:57:42.982Z,25.13
2018-09-11T09:58:43.040Z,25.03
2018-09-11T09:59:42.961Z,25.06
2018-09-11T10:00:42.950Z,25.06
2018-09-11T10:01:42.944Z,24.88
2018-09-11T10:02:42.949Z,24.77
2018-09-11T10:03:42.917Z,24.69
2018-09-11T10:04:42.978Z,24.67
2018-09-11T10:05:42.902Z,24.47
2018-09-11T10:06:42.885Z,24.40
2018-09-11T10:07:42.876Z,24.35
2018-09-11T10:08:42.865Z,24.42
2018-09-11T10:09:42.875Z,24.47
2018-09-11T10:10:42.864Z,24.71
2018-09-11T10:11:42.848Z,24.80
2018-09-11T10:12:42.843Z,24.98
2018-09-11T10:13:42.814Z,24.99
2018-09-11T10:14:42.803Z,24.90
2018-09-11T10:15:42.791Z,24.95
2018-09-11T10:16:42.777Z,25.13
2018-09-11T10:17:42.857Z,25.27
2018-09-11T10:18:42.755Z,25.35
2018-09-11T10:19:42.745Z,25.51
2018-09-11T10:20:42.734Z,25.64
2018-09-11T10:21:42.725Z,25.64
2018-09-11T10:22:42.738Z,25.57
2018-09-11T10:23:42.750Z,25.60
2018-09-11T10:24:42.693Z,25.58
2018-09-11T10:25:42.680Z,25.60
2018-09-11T10:26:42.674Z,25.64
2018-09-11T10:27:42.728Z,25.52
2018-09-11T10:28:42.670Z,25.42
2018-09-11T10:29:42.642Z,25.52
2018-09-11T10:30:42.626Z,25.33
2018-09-11T10:31:42.618Z,25.36
2018-09-11T10:32:42.605Z,25.40
2018-09-11T10:33:42.679Z,25.30
2018-09-11T10:34:42.589Z,25.35
2018-09-11T10:35:42.599Z,25.33
2018-09-11T10:36:42.564Z,25.24
2018-09-11T10:37:42.557Z,25.28
2018-09-11T10:38:42.545Z,25.38
2018-09-11T10:39:42.551Z,25.20
2018-09-11T10:40:42.525Z,25.10
2018-09-11T10:41:42.514Z,24.99
2018-09-11T10:42:42.521Z,24.87
2018-09-11T10:43:42.489Z,24.91
2018-09-11T10:44:42.497Z,24.95
2018-09-11T10:45:42.467Z,24.87
2018-09-11T10:46:42.461Z,24.95
2018-09-11T10:47:42.445Z,25.05
2018-09-11T10:48:42.461Z,25.15
2018-09-11T10:49:42.424Z,25.18
2018-09-11T10:50:42.414Z,25.27
2018-09-11T10:51:42.455Z,25.33
2018-09-11T10:52:42.413Z,25.50
2018-09-11T10:53:42.386Z,25.55
2018-09-11T10:54:42.376Z,25.65
2018-09-11T10:55:42.359Z,25.69
2018-09-11T10:56:42.378Z,25.76
2018-09-11T10:57:42.342Z,25.98
2018-09-11T10:58:42.328Z,26.01
2018-09-11T10:59:42.325Z,26.12
2018-09-11T11:00:42.305Z,26.02
2018-09-11T11:01:42.322Z,26.15
2018-09-11T11:02:42.289Z,26.23
2018-09-11T11:03:42.277Z,26.23
2018-09-11T11:04:42.262Z,26.26
2018-09-11T11:05:42.273Z,26.21
2018-09-11T11:06:42.245Z,26.21
2018-09-11T11:07:42.270Z,25.94
2018-09-11T11:08:42.222Z,25.91
2018-09-11T11:09:42.212Z,25.87
2018-09-11T11:10:42.201Z,25.79
2018-09-11T11:11:42.186Z,25.88
2018-09-11T11:12:42.199Z,25.91
2018-09-11T11:13:42.172Z,26.09
2018-09-11T11:14:42.160Z,26.17
2018-09-11T11:15:42.143Z,26.21
2018-09-11T11:16:42.133Z,26.28
2018-09-11T11:17:42.147Z,26.35
2018-09-11T11:18:42.135Z,26.30
2018-09-11T11:19:42.112Z,26.32
2018-09-11T11:20:42.140Z,26.39
2018-09-11T11:21:42.078Z,26.36
2018-09-11T11:22:42.071Z,26.33
2018-09-11T11:23:42.078Z,26.36
2018-09-11T11:24:42.071Z,26.43
2018-09-11T11:25:42.948Z,26.36
2018-09-11T11:26:42.024Z,26.28
2018-09-11T11:27:42.015Z,26.23
2018-09-11T11:28:42.031Z,26.30
2018-09-11T11:29:41.990Z,26.33
2018-09-11T11:30:41.979Z,26.54
2018-09-11T11:31:41.974Z,26.58
2018-09-11T11:32:41.958Z,26.81
2018-09-11T11:33:41.969Z,26.88
2018-09-11T11:34:41.937Z,27.02
2018-09-11T11:35:41.930Z,27.07
2018-09-11T11:36:42.123Z,27.25
2018-09-11T11:37:41.910Z,27.14
2018-09-11T11:38:41.916Z,27.19
2018-09-11T11:39:41.889Z,27.04
2018-09-11T11:40:41.877Z,26.91
2018-09-11T11:41:41.925Z,26.82
2018-09-11T11:42:41.911Z,26.80
2018-09-11T11:43:41.862Z,26.70
2018-09-11T11:44:41.837Z,26.77
2018-09-11T11:45:41.824Z,26.67
2018-09-11T11:46:41.837Z,26.60
2018-09-11T11:47:41.798Z,26.50
2018-09-11T11:48:41.787Z,26.51
2018-09-11T11:49:41.777Z,26.50
2018-09-11T11:50:41.786Z,26.51
2018-09-11T11:51:41.754Z,26.45
2018-09-11T11:52:41.765Z,26.47
2018-09-11T11:53:41.734Z,26.55
2018-09-11T11:54:41.769Z,26.57
2018-09-11T11:55:41.711Z,26.62
2018-09-11T11:56:41.700Z,26.47
2018-09-11T11:57:41.692Z,26.44
2018-09-11T11:58:41.683Z,26.55
2018-09-11T11:59:41.710Z,26.66
2018-09-11T12:00:41.661Z,26.75
2018-09-11T12:01:41.647Z,26.72
2018-09-11T12:02:41.639Z,26.73
2018-09-11T12:03:41.628Z,26.84
2018-09-11T12:04:41.634Z,26.84
2018-09-11T12:05:41.602Z,26.81
2018-09-11T12:06:41.624Z,26.92
2018-09-11T12:07:41.629Z,26.99
2018-09-11T12:08:41.571Z,26.97
2018-09-11T12:09:41.560Z,27.07
2018-09-11T12:10:41.569Z,27.13
2018-09-11T12:11:41.542Z,27.17
2018-09-11T12:12:41.538Z,27.18
2018-09-11T12:13:41.521Z,27.29
2018-09-11T12:14:41.508Z,27.29
2018-09-11T12:15:41.524Z,27.22
2018-09-11T12:16:41.484Z,27.25
2018-09-11T12:17:41.473Z,27.43
2018-09-11T12:18:41.463Z,27.34
2018-09-11T12:19:41.452Z,27.21
2018-09-11T12:20:41.466Z,27.22
2018-09-11T12:21:41.430Z,27.19
2018-09-11T12:22:41.424Z,27.18
2018-09-11T12:23:41.435Z,27.19
2018-09-11T12:24:41.400Z,27.21
2018-09-11T12:25:41.390Z,27.22
2018-09-11T12:26:41.442Z,27.29
2018-09-11T12:27:41.367Z,27.31
2018-09-11T12:28:41.384Z,27.22
2018-09-11T12:29:41.349Z,27.24
2018-09-11T12:30:41.335Z,27.18
2018-09-11T12:31:41.325Z,27.21
2018-09-11T12:32:41.319Z,27.24
2018-09-11T12:33:41.324Z,27.10
2018-09-11T12:34:41.299Z,27.04
2018-09-11T12:35:41.292Z,26.97
2018-09-11T12:36:41.275Z,26.99
2018-09-11T12:37:41.259Z,27.00
2018-09-11T12:38:41.271Z,27.07
2018-09-11T12:39:41.237Z,27.04
2018-09-11T12:40:41.227Z,27.17
2018-09-11T12:41:41.216Z,27.18
2018-09-11T12:42:41.210Z,27.22
2018-09-11T12:43:41.222Z,27.17
2018-09-11T12:44:41.188Z,26.99
2018-09-11T12:45:41.214Z,27.02
2018-09-11T12:46:41.469Z,26.97
2018-09-11T12:47:41.606Z,26.99
2018-09-11T12:48:41.399Z,26.97
2018-09-11T12:49:41.135Z,27.06
2018-09-11T12:50:41.141Z,27.04
2018-09-11T12:51:41.110Z,27.00
2018-09-11T12:52:41.228Z,27.12